Time;durP1;ratioP1;P1;durP2;ratioP2;P2;SDS_P1;SDS_P2;PMS_P1;PMS_P2;Temp;Humidity;BMP_temperature;BMP_pressure;BME280_temperature;BME280_humidity;BME280_pressure;Samples;Min_cycle;Max_cycle;Signal;HPM_P1;HPM_P2
2023/07/10 00:01:05;;;;;;;4.95;3.40;;;23.00;83.70;;;23.06;66.43;97406.19;4998626;28;20026;-37
2023/07/10 00:03:32;;;;;;;4.28;3.22;;;23.00;84.20;;;23.12;66.60;97414.72;4986247;28;20079;-37
2023/07/10 00:05:59;;;;;;;6.43;3.50;;;23.00;84.50;;;23.10;67.40;97409.47;4982450;28;20132;-37
2023/07/10 00:08:25;;;;;;;4.43;3.15;;;23.00;84.80;;;23.04;67.47;97405.47;4979011;28;20034;-37
2023/07/10 00:10:51;;;;;;;5.93;3.35;;;23.00;84.90;;;23.14;66.08;97404.66;4984923;28;20087;-37
2023/07/10 00:13:21;;;;;;;4.72;3.22;;;23.00;84.30;;;23.22;65.18;97404.81;4981361;28;20034;-37
2023/07/10 00:15:52;;;;;;;4.82;3.05;;;23.10;83.90;;;23.31;64.59;97401.34;4981293;28;20028;-37
2023/07/10 00:18:21;;;;;;;4.43;3.38;;;23.20;83.60;;;23.39;65.19;97408.72;4984216;28;20030;-37
2023/07/10 00:20:47;;;;;;;8.32;3.45;;;23.20;84.00;;;23.37;58.13;97416.09;4983632;28;20482;-37
2023/07/10 00:23:15;;;;;;;7.85;4.00;;;23.30;80.70;;;23.53;57.49;97440.63;4983093;28;20034;-37
2023/07/10 00:25:41;;;;;;;7.13;3.85;;;23.40;79.40;;;23.68;59.30;97451.88;4988389;28;20479;-37
2023/07/10 00:28:21;;;;;;;6.15;3.97;;;23.50;80.80;;;23.64;62.89;97450.44;4986566;28;20033;-37
2023/07/10 00:30:49;;;;;;;6.85;4.00;;;23.50;82.40;;;23.60;59.16;97432.88;4980726;28;20091;-37
2023/07/10 00:33:17;;;;;;;6.30;4.03;;;23.40;80.50;;;23.54;59.18;97438.78;4978352;28;20064;-37
2023/07/10 00:35:43;;;;;;;5.28;4.00;;;23.40;80.50;;;23.47;57.70;97435.78;4983989;28;20564;-37
2023/07/10 00:38:26;;;;;;;7.72;3.90;;;23.40;79.60;;;23.45;58.14;97435.06;4980331;28;20035;-37
2023/07/10 00:40:52;;;;;;;5.40;3.65;;;23.30;80.10;;;23.41;57.96;97436.34;4982839;28;20030;-37
2023/07/10 00:43:35;;;;;;;5.95;4.00;;;23.30;79.90;;;23.39;56.74;97424.88;4983830;28;20014;-37
2023/07/10 00:46:10;;;;;;;;;;;23.20;79.20;;;23.30;56.64;97418.47;4994393;28;20036;-37
2023/07/10 00:48:48;;;;;;;5.70;3.58;;;23.20;79.30;;;23.35;57.96;97426.16;4998713;28;19920;-37
2023/07/10 00:51:23;;;;;;;6.13;3.45;;;23.20;80.00;;;23.39;57.99;97425.72;4984977;28;20050;-37
2023/07/10 00:53:52;;;;;;;4.25;3.38;;;23.20;80.20;;;23.37;58.97;97427.69;4985350;28;20039;-37
2023/07/10 00:56:20;;;;;;;5.22;3.53;;;23.20;80.70;;;23.33;60.19;97437.03;4974968;28;20068;-37
2023/07/10 00:58:49;;;;;;;6.35;3.72;;;23.20;81.60;;;23.31;60.79;97440.84;4985955;28;20037;-37
2023/07/10 01:01:22;;;;;;;5.05;3.60;;;23.10;81.70;;;23.32;61.11;97445.25;4982374;28;20081;-37
2023/07/10 01:03:52;;;;;;;5.13;3.67;;;23.10;82.00;;;23.32;61.85;97456.00;4983380;28;20029;-37
2023/07/10 01:06:22;;;;;;;8.07;4.07;;;23.10;82.50;;;23.31;62.28;97465.03;4975027;28;20038;-37
2023/07/10 01:09:04;;;;;;;8.27;4.43;;;23.10;82.80;;;23.33;62.92;97469.31;4982307;28;20033;-37
2023/07/10 01:11:31;;;;;;;8.38;4.22;;;23.20;83.10;;;23.33;63.41;97471.16;4982006;28;20391;-37
2023/07/10 01:13:59;;;;;;;7.13;4.47;;;23.30;83.10;;;23.43;63.78;97485.50;4985573;28;20033;-37
2023/07/10 01:16:27;;;;;;;6.18;4.50;;;23.30;83.70;;;23.53;63.43;97488.25;4985964;28;20038;-37
2023/07/10 01:18:54;;;;;;;4.95;3.55;;;23.40;83.70;;;23.55;63.53;97494.34;4987835;28;20580;-37
2023/07/10 01:21:28;;;;;;;5.63;4.00;;;23.40;83.80;;;23.53;63.50;97509.78;4982657;28;20065;-37
2023/07/10 01:23:55;;;;;;;5.63;3.83;;;23.40;83.60;;;23.44;63.80;97503.38;4987067;28;20045;-37
2023/07/10 01:26:22;;;;;;;8.75;4.55;;;23.30;83.70;;;23.43;65.93;97505.19;4982060;28;20441;-37
2023/07/10 01:28:48;;;;;;;6.55;4.32;;;23.30;84.90;;;23.41;67.05;97500.94;4988207;28;20029;-37
2023/07/10 01:31:17;;;;;;;5.93;4.07;;;23.30;85.50;;;23.39;68.23;97505.59;4987726;28;20061;-37
2023/07/10 01:33:56;;;;;;;8.75;4.15;;;23.20;86.10;;;23.37;69.26;97508.41;4986500;28;20087;-37
2023/07/10 01:36:29;;;;;;;7.55;4.60;;;23.20;86.90;;;23.37;69.69;97502.19;5000678;28;20129;-35
2023/07/10 01:39:16;;;;;;;6.65;4.18;;;23.20;87.20;;;23.37;69.78;97504.88;4986148;28;20615;-35
2023/07/10 01:41:44;;;;;;;6.05;4.47;;;23.20;87.40;;;23.34;70.17;97506.00;4980621;28;20854;-35
2023/07/10 01:44:32;;;;;;;6.63;4.72;;;23.20;87.60;;;23.31;71.79;97492.81;4984598;28;20034;-35
2023/07/10 01:47:00;;;;;;;7.80;4.57;;;23.10;88.60;;;23.31;72.80;97491.94;4990301;28;20022;-35
2023/07/10 01:49:31;;;;;;;6.25;4.18;;;23.10;88.80;;;23.27;72.78;97483.28;4985599;28;20284;-35
2023/07/10 01:51:59;;;;;;;7.03;4.13;;;23.10;88.90;;;23.14;74.52;97459.31;4985405;28;20091;-35
2023/07/10 01:54:25;;;;;;;6.65;4.25;;;23.00;89.50;;;23.19;75.40;97472.38;4983329;28;20136;-35
2023/07/10 01:56:52;;;;;;;5.60;3.95;;;23.00;90.00;;;23.16;75.98;97472.63;4990594;28;20157;-37
2023/07/10 01:59:17;;;;;;;6.78;4.47;;;23.00;90.20;;;23.09;77.52;97466.09;4984184;28;20230;-37
2023/07/10 02:01:44;;;;;;;6.85;3.92;;;23.00;90.50;;;22.95;77.80;97448.41;4985951;28;20563;-37
2023/07/10 02:04:09;;;;;;;7.35;4.18;;;22.90;90.60;;;23.03;78.21;97468.28;4987140;28;20034;-37
2023/07/10 02:06:37;;;;;;;7.35;4.32;;;22.90;90.70;;;23.04;77.50;97466.44;4986697;28;20269;-37
2023/07/10 02:09:04;;;;;;;9.00;5.07;;;22.90;90.60;;;22.99;77.42;97463.31;4988651;28;20259;-37
2023/07/10 02:11:30;;;;;;;6.70;4.47;;;22.90;90.60;;;23.08;77.62;97475.13;4986638;28;20119;-37
2023/07/10 02:13:56;;;;;;;8.35;4.30;;;23.00;90.70;;;22.95;77.73;97449.28;4986674;28;20038;-37
2023/07/10 02:16:22;;;;;;;8.07;4.78;;;22.90;90.70;;;23.01;78.77;97474.78;4983958;28;20342;-37
2023/07/10 02:18:47;;;;;;;5.40;3.97;;;22.90;90.90;;;22.96;80.29;97464.41;4989454;28;20457;-37
2023/07/10 02:21:13;;;;;;;9.07;4.53;;;22.90;91.20;;;22.85;83.35;97454.59;4984519;28;20133;-37
2023/07/10 02:23:40;;;;;;;5.75;4.60;;;22.80;91.80;;;22.84;83.61;97457.41;4984350;28;20027;-37
2023/07/10 02:26:06;;;;;;;8.23;4.03;;;22.80;92.00;;;22.80;84.99;97450.59;4968213;28;20041;-37
2023/07/10 02:28:32;;;;;;;6.03;4.45;;;22.70;92.30;;;22.73;86.27;97454.81;4977507;28;20072;-37
2023/07/10 02:31:03;;;;;;;6.35;3.95;;;22.70;92.60;;;22.68;86.08;97447.13;4980896;28;20067;-37
2023/07/10 02:33:29;;;;;;;6.38;3.83;;;22.60;92.60;;;22.64;86.46;97454.59;4983465;28;20045;-37
2023/07/10 02:35:55;;;;;;;6.03;4.03;;;22.60;92.70;;;22.64;85.79;97467.19;4977605;28;20034;-37
2023/07/10 02:38:20;;;;;;;8.35;4.93;;;22.50;92.70;;;22.62;84.79;97469.16;4983401;28;20034;-37
2023/07/10 02:40:46;;;;;;;6.35;4.25;;;22.50;92.60;;;22.62;82.49;97471.84;4986937;28;20503;-37
2023/07/10 02:43:12;;;;;;;6.88;4.55;;;22.50;92.20;;;22.62;82.39;97488.81;4979228;28;20030;-37
2023/07/10 02:45:37;;;;;;;7.93;4.47;;;22.60;92.20;;;22.65;82.82;97495.78;4977466;28;20050;-37
2023/07/10 02:48:03;;;;;;;7.03;4.03;;;22.60;92.30;;;22.67;84.25;97491.13;4976921;28;20056;-37
2023/07/10 02:50:29;;;;;;;6.63;3.90;;;22.60;92.70;;;22.63;84.19;97495.91;4980032;28;20045;-37
2023/07/10 02:52:55;;;;;;;8.35;4.75;;;22.60;92.70;;;22.71;80.79;97499.78;4982779;28;20022;-37
2023/07/10 02:55:21;;;;;;;6.50;4.50;;;22.60;92.10;;;22.81;80.64;97495.34;4983464;28;20469;-37
2023/07/10 02:57:46;;;;;;;5.90;4.10;;;22.60;92.10;;;22.80;79.94;97478.34;4985135;28;20722;-37
2023/07/10 03:00:13;;;;;;;5.53;3.55;;;22.70;92.00;;;22.87;79.87;97481.34;4987074;28;20261;-37
2023/07/10 03:02:39;;;;;;;6.07;4.28;;;22.70;91.90;;;22.84;79.88;97500.44;4986510;28;20448;-37
2023/07/10 03:05:05;;;;;;;7.40;4.55;;;22.70;92.00;;;22.84;80.39;97511.19;4984393;28;20267;-37
2023/07/10 03:07:31;;;;;;;7.75;4.80;;;22.70;92.10;;;22.85;80.25;97518.28;4986487;28;20033;-37
2023/07/10 03:09:57;;;;;;;8.35;4.93;;;22.70;92.10;;;22.88;79.23;97518.88;4986546;28;20041;-37
2023/07/10 03:12:23;;;;;;;7.18;4.28;;;22.70;92.00;;;22.91;79.26;97517.75;4987577;28;21047;-37
2023/07/10 03:14:49;;;;;;;7.10;4.20;;;22.70;92.00;;;22.93;79.25;97518.47;4980245;28;20065;-37
2023/07/10 03:17:16;;;;;;;5.70;3.80;;;22.80;92.00;;;22.93;80.06;97525.69;4980857;28;20049;-37
2023/07/10 03:19:42;;;;;;;6.40;3.92;;;22.80;92.20;;;22.91;81.13;97527.66;4988662;28;20088;-37
2023/07/10 03:22:08;;;;;;;5.50;3.95;;;22.80;92.40;;;22.88;81.79;97540.38;4982535;28;21412;-37
2023/07/10 03:24:33;;;;;;;9.38;3.95;;;22.80;92.60;;;22.88;82.22;97539.53;4982150;28;20019;-37
2023/07/10 03:26:59;;;;;;;5.22;3.95;;;22.70;92.70;;;22.89;82.31;97541.22;4980804;28;20184;-37
2023/07/10 03:29:25;;;;;;;4.70;3.83;;;22.80;92.70;;;22.91;81.83;97531.19;4985348;28;20088;-37
2023/07/10 03:31:51;;;;;;;7.68;3.95;;;22.80;92.70;;;22.87;82.08;97511.78;4984418;28;20062;-37
2023/07/10 03:34:17;;;;;;;4.70;3.42;;;22.80;92.80;;;22.94;82.44;97522.03;4980896;28;20029;-37
2023/07/10 03:36:43;;;;;;;9.73;3.97;;;22.80;92.90;;;22.95;81.42;97527.28;4981622;28;20038;-37
2023/07/10 03:39:09;;;;;;;8.02;4.50;;;22.80;92.70;;;22.96;80.43;97538.88;4977116;28;23118;-37
2023/07/10 03:41:35;;;;;;;5.85;4.18;;;22.80;92.50;;;22.97;80.37;97535.19;4980164;28;20038;-37
2023/07/10 03:44:01;;;;;;;6.57;4.32;;;22.80;93.00;;;22.95;80.01;97539.84;4981509;28;20579;-37
2023/07/10 03:46:27;;;;;;;7.40;4.60;;;22.80;92.50;;;22.91;80.33;97541.94;4982620;28;20073;-37
2023/07/10 03:48:53;;;;;;;10.15;4.70;;;22.80;92.60;;;22.87;80.44;97544.03;4979307;28;20724;-37
2023/07/10 03:51:19;;;;;;;7.22;4.10;;;22.80;92.60;;;22.81;81.00;97530.28;4976052;28;20577;-37
2023/07/10 03:53:46;;;;;;;6.22;4.30;;;22.80;92.80;;;22.90;80.81;97555.50;4980087;28;20382;-37
2023/07/10 03:56:12;;;;;;;7.03;4.20;;;22.80;92.80;;;22.90;80.58;97569.84;4981639;28;20481;-37
2023/07/10 03:58:42;;;;;;;8.07;4.75;;;22.80;92.70;;;22.94;80.26;97571.28;4986528;28;20029;-37
2023/07/10 04:01:08;;;;;;;7.20;5.03;;;22.90;92.60;;;22.97;80.02;97565.66;4981655;28;20829;-37
2023/07/10 04:03:36;;;;;;;8.25;4.25;;;22.90;92.60;;;23.03;82.66;97570.50;4983870;28;20117;-37
2023/07/10 04:06:03;;;;;;;7.45;4.68;;;22.90;93.10;;;23.08;81.58;97569.25;4984984;28;20119;-37
2023/07/10 04:08:32;;;;;;;7.72;4.38;;;23.00;93.00;;;23.16;80.52;97566.78;4987033;28;20022;-37
2023/07/10 04:11:02;;;;;;;6.78;4.53;;;23.00;92.90;;;23.14;79.55;97549.94;4981951;28;20758;-37
2023/07/10 04:13:28;;;;;;;8.43;4.72;;;23.10;92.70;;;23.33;78.20;97573.38;4979092;28;20114;-37
2023/07/10 04:16:11;;;;;;;10.98;4.45;;;23.20;92.50;;;23.46;76.77;97567.81;4982485;28;20037;-37
2023/07/10 04:18:39;;;;;;;6.60;4.35;;;23.30;92.30;;;23.58;76.51;97566.72;4985297;28;20030;-37
2023/07/10 04:21:27;;;;;;;6.55;3.83;;;23.40;92.10;;;23.66;76.02;97564.22;4980414;28;20038;-37
2023/07/10 04:23:53;;;;;;;6.43;4.10;;;23.50;92.10;;;23.76;74.86;97585.81;4985074;28;20066;-37
2023/07/10 04:26:32;;;;;;;7.80;4.80;;;23.60;91.80;;;23.82;73.71;97588.84;4986976;28;20038;-37
2023/07/10 04:29:01;;;;;;;6.72;4.57;;;23.70;91.60;;;23.87;74.23;97595.66;4983500;28;20149;-37
2023/07/10 04:31:27;;;;;;;7.65;4.10;;;23.70;91.60;;;23.88;74.22;97589.28;4979020;28;20030;-37
2023/07/10 04:33:53;;;;;;;6.00;4.00;;;23.80;91.70;;;23.86;75.28;97592.13;4986053;28;20517;-37
2023/07/10 04:36:20;;;;;;;6.07;4.00;;;23.80;91.90;;;23.85;76.12;97594.94;4983941;28;20022;-37
2023/07/10 04:38:47;;;;;;;5.07;3.70;;;23.70;92.00;;;23.81;76.82;97597.94;4982006;28;20529;-37
2023/07/10 04:41:18;;;;;;;6.13;4.22;;;23.70;92.20;;;23.83;75.29;97603.16;4984766;28;20025;-37
2023/07/10 04:43:44;;;;;;;8.00;4.30;;;23.70;92.00;;;23.81;75.92;97606.00;4964512;28;20061;-37
2023/07/10 04:46:13;;;;;;;6.70;3.78;;;23.70;92.00;;;23.75;75.93;97592.19;4976162;28;20529;-37
2023/07/10 04:48:38;;;;;;;7.82;4.50;;;23.60;92.10;;;23.64;77.56;97582.34;4981735;28;20081;-37
2023/07/10 04:51:07;;;;;;;7.18;4.28;;;23.60;92.50;;;23.73;77.63;97602.25;4983930;28;20038;-37
2023/07/10 04:53:34;;;;;;;4.72;4.05;;;23.60;92.50;;;23.60;78.96;97575.56;4976025;28;20037;-37
2023/07/10 04:56:02;;;;;;;10.25;4.57;;;23.60;92.70;;;23.63;78.02;97581.53;4978911;28;20034;-37
2023/07/10 04:58:31;;;;;;;7.43;4.43;;;23.50;92.60;;;23.61;79.28;97569.16;4980153;28;20030;-37
2023/07/10 05:00:59;;;;;;;5.13;3.85;;;23.50;92.90;;;23.56;82.31;97566.00;4977660;28;20398;-37
2023/07/10 05:03:25;;;;;;;5.28;3.72;;;23.40;93.50;;;23.49;82.70;97591.75;4973713;28;20397;-37
2023/07/10 05:05:56;;;;;;;8.02;4.32;;;23.40;93.70;;;23.39;82.77;97618.63;4976680;28;20033;-37
2023/07/10 05:08:24;;;;;;;9.25;4.57;;;23.30;93.70;;;23.44;81.43;97646.00;4981554;28;20718;-37
2023/07/10 05:10:51;;;;;;;9.40;4.68;;;23.30;93.60;;;23.56;79.89;97650.34;4976222;28;20053;-37
2023/07/10 05:13:22;;;;;;;7.28;5.03;;;23.40;93.30;;;23.70;77.88;97645.59;4976454;28;20034;-37
2023/07/10 05:15:48;;;;;;;7.72;4.60;;;23.60;93.00;;;23.85;77.61;97663.16;4979913;28;20042;-37
2023/07/10 05:18:14;;;;;;;7.72;4.10;;;23.70;92.90;;;23.94;77.87;97656.94;4981180;28;20867;-37
2023/07/10 05:20:44;;;;;;;6.47;4.00;;;23.80;92.90;;;24.10;78.75;97643.00;4983694;28;20457;-37
2023/07/10 05:23:11;;;;;;;6.57;3.53;;;23.90;93.10;;;24.20;77.39;97635.78;4979069;28;20468;-37
2023/07/10 05:25:37;;;;;;;8.15;4.20;;;24.00;92.90;;;24.32;75.16;97625.75;4977636;28;20030;-37
2023/07/10 05:28:03;;;;;;;7.32;4.22;;;24.10;92.40;;;24.63;73.17;97627.56;4982501;28;20438;-37
2023/07/10 05:30:29;;;;;;;5.88;4.35;;;24.30;92.20;;;25.01;70.63;97621.31;4983177;28;20753;-37
2023/07/10 05:32:55;;;;;;;8.38;4.30;;;24.50;91.80;;;25.46;68.09;97628.84;4981577;28;20041;-38
2023/07/10 05:35:21;;;;;;;6.18;4.05;;;24.80;91.50;;;26.00;65.36;97626.44;4976747;28;20402;-38
2023/07/10 05:37:48;;;;;;;6.95;4.15;;;25.20;91.10;;;26.44;63.12;97625.81;4976997;28;20073;-38
2023/07/10 05:40:13;;;;;;;6.28;3.92;;;25.60;90.80;;;26.50;61.78;97621.66;4977639;28;20026;-38
2023/07/10 05:42:39;;;;;;;9.13;4.05;;;25.70;90.10;;;26.29;61.66;97614.69;4979509;28;20041;-38
2023/07/10 05:45:06;;;;;;;5.88;3.67;;;25.70;89.70;;;26.08;63.17;97623.03;4976295;28;20041;-40
2023/07/10 05:47:32;;;;;;;5.85;4.25;;;25.60;89.90;;;25.92;65.74;97635.25;4979227;28;20026;-38
2023/07/10 05:49:58;;;;;;;5.72;4.22;;;25.50;90.50;;;25.84;67.26;97651.38;4985078;28;20439;-38
2023/07/10 05:52:24;;;;;;;6.20;4.50;;;25.60;90.80;;;25.86;70.94;97662.00;4983168;28;20525;-38
2023/07/10 05:54:49;;;;;;;6.07;4.03;;;25.60;91.70;;;25.91;69.62;97671.41;4980506;28;20477;-38
2023/07/10 05:57:15;;;;;;;5.15;3.78;;;25.70;91.30;;;26.03;69.21;97684.75;4979220;28;20037;-39
2023/07/10 05:59:41;;;;;;;5.43;3.90;;;25.80;91.20;;;26.18;68.98;97693.25;4986400;28;20766;-37
2023/07/10 06:02:12;;;;;;;6.63;4.45;;;25.90;91.20;;;26.30;68.21;97683.94;4988375;28;20030;-37
2023/07/10 06:04:38;;;;;;;7.10;4.65;;;26.10;91.00;;;26.43;66.46;97691.72;4994344;28;20096;-37
2023/07/10 06:07:05;;;;;;;11.38;5.57;;;26.20;90.50;;;26.50;63.44;97692.81;4986204;28;20064;-37
2023/07/10 06:09:31;;;;;;;8.00;4.65;;;26.30;89.60;;;26.62;63.28;97693.50;4987884;28;20731;-37
2023/07/10 06:11:57;;;;;;;8.50;4.65;;;26.40;89.40;;;26.86;59.61;97692.94;4990546;28;20219;-37
2023/07/10 06:14:23;;;;;;;8.88;4.90;;;26.60;87.30;;;27.09;58.48;97685.22;4981349;28;20052;-38
2023/07/10 06:16:48;;;;;;;7.28;4.50;;;26.90;86.60;;;27.35;57.22;97665.50;4982954;28;20042;-38
2023/07/10 06:19:15;;;;;;;8.43;4.93;;;27.10;86.00;;;27.69;55.42;97675.59;4985741;28;20466;-37
2023/07/10 06:21:41;;;;;;;12.57;4.93;;;27.40;85.00;;;27.98;54.51;97683.47;4992045;28;20068;-37
2023/07/10 06:24:07;;;;;;;10.93;5.45;;;27.70;84.30;;;28.18;54.00;97679.50;4982690;28;20115;-37
2023/07/10 06:26:32;;;;;;;6.53;4.63;;;27.90;83.70;;;28.35;52.59;97675.03;4984082;28;20505;-38
2023/07/10 06:28:58;;;;;;;7.18;5.00;;;28.10;83.00;;;28.32;53.36;97661.78;4991701;28;20041;-37
2023/07/10 06:31:24;;;;;;;6.65;5.07;;;28.10;82.60;;;28.15;53.11;97671.69;4990553;28;20041;-37
2023/07/10 06:33:51;;;;;;;8.63;4.88;;;28.00;82.30;;;27.98;54.18;97661.78;4986755;28;20267;-37
2023/07/10 06:36:17;;;;;;;9.48;5.03;;;27.80;82.90;;;27.80;55.57;97654.53;4988310;28;20478;-37
2023/07/10 06:38:42;;;;;;;7.22;4.75;;;27.70;83.60;;;27.76;55.61;97650.44;4977970;28;20025;-37
2023/07/10 06:41:10;;;;;;;8.98;4.20;;;27.60;83.90;;;27.73;56.51;97648.03;4983055;28;20037;-37
2023/07/10 06:43:36;;;;;;;5.93;4.60;;;27.50;84.30;;;27.65;55.86;97636.31;4987406;28;20392;-38
2023/07/10 06:46:01;;;;;;;8.68;4.88;;;27.50;84.30;;;27.75;55.91;97640.59;4989450;28;20040;-37
2023/07/10 06:48:27;;;;;;;9.52;4.53;;;27.60;84.40;;;27.96;56.92;97639.41;4989907;28;20732;-38
2023/07/10 06:50:54;;;;;;;10.55;4.82;;;27.70;85.10;;;27.99;55.15;97639.91;4989088;28;20422;-37
2023/07/10 06:53:22;;;;;;;9.48;4.80;;;27.80;83.80;;;27.99;56.02;97631.78;4986055;28;20088;-40
2023/07/10 06:56:00;;;;;;;7.03;4.30;;;27.80;84.10;;;28.26;55.00;97642.59;4987317;28;20033;-40
2023/07/10 06:58:27;;;;;;;6.45;4.38;;;28.00;84.40;;;28.58;54.95;97658.19;4984534;28;20030;-40
2023/07/10 07:00:54;;;;;;;7.93;4.20;;;28.30;84.50;;;28.60;51.82;97664.31;4983149;28;20029;-39
2023/07/10 07:03:20;;;;;;;6.25;4.30;;;28.50;81.90;;;28.57;52.87;97659.22;4986446;28;20049;-38
2023/07/10 07:05:47;;;;;;;10.02;4.70;;;28.40;82.00;;;28.61;55.05;97668.72;4982694;28;20111;-39
2023/07/10 07:08:14;;;;;;;7.03;4.20;;;28.40;84.60;;;28.60;50.83;97660.75;4989403;28;20484;-39
2023/07/10 07:10:43;;;;;;;6.45;4.00;;;28.50;80.80;;;28.50;51.43;97675.28;4982708;28;20133;-40
2023/07/10 07:13:10;;;;;;;9.93;4.50;;;28.40;80.60;;;28.37;52.21;97680.28;4987567;28;20189;-39
2023/07/10 07:15:36;;;;;;;6.60;4.20;;;28.30;80.90;;;28.32;52.75;97685.38;4983204;28;20062;-40
2023/07/10 07:18:03;;;;;;;5.72;3.70;;;28.20;81.40;;;28.37;53.12;97683.00;4974084;28;20061;-38
2023/07/10 07:20:30;;;;;;;8.52;4.50;;;28.20;81.80;;;28.27;53.66;97666.84;4978372;28;20045;-38
2023/07/10 07:22:56;;;;;;;5.97;4.32;;;28.10;82.80;;;28.13;54.34;97691.88;4978218;28;20103;-38
2023/07/10 07:25:22;;;;;;;6.18;3.80;;;28.00;82.40;;;28.01;53.77;97687.72;4986244;28;20763;-38
2023/07/10 07:27:47;;;;;;;6.20;4.20;;;27.80;82.50;;;27.92;57.65;97695.78;4982570;28;20026;-40
2023/07/10 07:30:13;;;;;;;13.32;4.00;;;27.70;83.40;;;27.76;60.02;97706.47;4983063;28;20053;-39
2023/07/10 07:32:39;;;;;;;5.75;3.60;;;27.50;86.00;;;27.76;59.59;97712.78;4986844;28;20022;-39
2023/07/10 07:35:05;;;;;;;6.07;4.05;;;27.40;86.60;;;27.91;58.05;97713.06;4988295;28;20104;-39
2023/07/10 07:37:30;;;;;;;7.53;3.83;;;27.60;85.80;;;28.12;55.10;97717.25;4987809;28;20517;-40
2023/07/10 07:39:58;;;;;;;7.07;4.47;;;27.80;84.20;;;28.27;54.86;97721.09;5011326;23;20050;-36
2023/07/10 07:42:24;;;;;;;9.82;4.10;;;27.90;83.30;;;28.41;53.37;97722.34;5008942;28;20750;-37
2023/07/10 07:44:49;;;;;;;7.28;4.20;;;28.10;83.00;;;28.59;53.83;97727.72;4999886;28;20022;-36
2023/07/10 07:47:16;;;;;;;5.00;4.00;;;28.30;82.90;;;28.75;52.83;97713.38;4984717;28;20034;-37
2023/07/10 07:49:41;;;;;;;8.55;4.32;;;28.40;82.30;;;28.87;54.08;97716.63;4990889;28;20045;-37
2023/07/10 07:52:07;;;;;;;6.72;4.00;;;28.60;82.70;;;29.07;51.75;97723.50;4987798;28;20783;-36
2023/07/10 07:54:33;;;;;;;7.50;4.32;;;28.80;81.70;;;29.12;51.07;97720.25;4990085;28;20133;-37
2023/07/10 07:56:58;;;;;;;5.15;3.83;;;29.00;80.70;;;29.32;50.30;97726.25;4985132;28;20038;-37
2023/07/10 07:59:24;;;;;;;4.93;3.92;;;29.10;80.30;;;29.48;50.51;97720.84;4994175;28;20382;-36
2023/07/10 08:01:51;;;;;;;6.72;3.92;;;29.20;80.50;;;29.72;50.24;97727.34;4987609;28;20073;-37
2023/07/10 08:04:19;;;;;;;8.23;4.28;;;29.50;80.50;;;29.93;48.43;97713.22;4989266;28;20454;-37
2023/07/10 08:06:47;;;;;;;6.68;4.18;;;29.70;79.30;;;30.19;48.14;97704.88;4988758;28;20029;-37
2023/07/10 08:09:13;;;;;;;4.55;3.83;;;29.90;78.10;;;30.31;48.12;97709.94;4987953;28;20052;-37
2023/07/10 08:11:39;;;;;;;8.25;4.25;;;30.20;78.30;;;30.34;48.05;97712.34;4988376;28;21638;-37
2023/07/10 08:14:04;;;;;;;7.45;4.57;;;30.20;77.70;;;30.37;47.88;97701.97;4985856;28;20045;-37
2023/07/10 08:16:30;;;;;;;5.25;4.00;;;30.20;77.10;;;30.36;47.73;97710.28;4988025;28;20077;-37
2023/07/10 08:18:56;;;;;;;5.00;3.80;;;30.20;77.50;;;30.23;47.88;97706.22;4989762;28;20041;-37
2023/07/10 08:21:21;;;;;;;9.25;4.22;;;30.00;77.50;;;29.95;48.39;97703.06;4990253;28;20497;-37
2023/07/10 08:23:47;;;;;;;6.20;4.25;;;29.80;78.50;;;29.59;49.45;97706.06;4987829;28;20036;-36
2023/07/10 08:26:13;;;;;;;8.30;4.45;;;29.50;78.30;;;29.33;50.61;97710.84;4985453;28;20057;-37
2023/07/10 08:28:39;;;;;;;5.20;4.32;;;29.20;79.60;;;29.16;52.11;97693.66;4991713;28;20398;-37
2023/07/10 08:31:05;;;;;;;5.78;4.03;;;29.00;81.10;;;29.13;53.22;97711.94;4988852;28;20105;-37
2023/07/10 08:33:31;;;;;;;6.70;4.25;;;28.90;81.70;;;29.07;54.35;97700.91;4989302;28;20548;-37
2023/07/10 08:36:05;;;;;;;5.07;4.13;;;28.90;82.40;;;29.16;52.94;97701.81;4989273;28;20749;-37
2023/07/10 08:38:36;;;;;;;5.55;4.20;;;28.90;82.10;;;29.06;53.30;97712.78;4989827;28;20512;-37
2023/07/10 08:41:15;;;;;;;8.90;4.82;;;28.90;82.00;;;28.99;55.57;97704.47;4978810;28;20041;-36
2023/07/10 08:43:41;;;;;;;6.85;4.40;;;28.90;83.00;;;29.07;55.87;97707.19;4989083;28;20084;-37
2023/07/10 08:46:12;;;;;;;5.40;4.18;;;28.90;83.90;;;29.27;54.72;97709.63;5000518;28;20553;-37
2023/07/10 08:48:44;;;;;;;7.00;4.00;;;29.10;83.60;;;29.51;53.58;97709.66;4988842;28;20041;-38
2023/07/10 08:51:29;;;;;;;6.25;4.30;;;29.30;83.10;;;29.60;51.66;97715.94;4983837;28;20228;-38
2023/07/10 08:54:10;;;;;;;6.65;4.10;;;29.40;81.00;;;29.75;51.41;97705.25;4984389;28;20341;-37
2023/07/10 08:56:53;;;;;;;7.87;4.80;;;29.60;80.20;;;29.83;52.21;97705.25;4985935;28;20045;-37
2023/07/10 08:59:30;;;;;;;6.90;4.20;;;29.80;80.20;;;30.10;50.27;97711.34;4985948;28;20022;-38
2023/07/10 09:01:56;;;;;;;8.63;4.25;;;30.00;79.90;;;30.22;50.11;97722.69;5002707;28;20029;-37
2023/07/10 09:04:23;;;;;;;9.77;4.63;;;30.20;79.40;;;30.27;50.53;97718.47;4990666;28;20204;-37
2023/07/10 09:06:52;;;;;;;8.13;4.70;;;30.30;79.60;;;30.48;50.19;97722.50;4984125;28;20045;-37
2023/07/10 09:09:56;;;;;;;5.95;4.72;;;30.50;79.40;;;30.60;50.17;97734.72;4986917;28;20030;-40
2023/07/10 09:12:41;;;;;;;7.40;5.18;;;30.60;79.20;;;30.08;50.89;97716.97;4996948;28;20034;-39
2023/07/10 09:15:13;;;;;;;6.90;4.95;;;30.30;78.90;;;30.24;51.77;97718.81;4984535;28;20038;-40
2023/07/10 09:18:23;;;;;;;6.00;4.32;;;30.30;80.10;;;30.63;50.89;97726.19;4988077;28;20425;-39
2023/07/10 09:20:52;;;;;;;5.88;4.63;;;30.50;80.40;;;30.67;50.87;97726.69;4984457;28;20467;-39
2023/07/10 09:23:18;;;;;;;7.65;4.90;;;30.50;80.40;;;30.51;51.05;97724.88;4984681;28;20049;-39
2023/07/10 09:25:43;;;;;;;6.55;4.97;;;30.40;79.90;;;30.34;51.62;97731.38;4991572;28;20474;-40
2023/07/10 09:28:10;;;;;;;9.60;4.82;;;30.30;80.10;;;30.26;52.52;97724.91;4985340;28;20457;-39
2023/07/10 09:31:25;;;;;;;7.53;4.88;;;30.10;81.40;;;30.10;53.23;97726.81;5001066;28;20045;-39
2023/07/10 09:33:58;;;;;;;6.32;4.80;;;29.90;81.40;;;30.15;52.96;97725.28;4987471;28;20037;-41
2023/07/10 09:36:24;;;;;;;7.32;4.57;;;29.90;82.10;;;30.18;53.12;97708.59;4990406;28;21196;-38
2023/07/10 09:38:53;;;;;;;7.00;5.05;;;30.00;82.00;;;30.16;52.78;97718.81;4989558;28;20029;-40
2023/07/10 09:41:28;;;;;;;8.73;4.78;;;30.00;81.60;;;30.44;53.46;97721.16;4991507;28;20505;-39
2023/07/10 09:44:20;;;;;;;5.93;5.07;;;30.30;82.70;;;30.63;52.67;97720.75;4990458;28;20026;-40
2023/07/10 09:46:47;;;;;;;8.02;4.80;;;30.50;81.70;;;30.59;51.53;97718.56;4989981;28;20026;-40
2023/07/10 09:49:21;;;;;;;8.23;4.68;;;30.50;80.80;;;30.39;52.49;97708.06;4997619;28;20045;-38
2023/07/10 09:52:00;;;;;;;6.65;4.28;;;30.20;80.70;;;30.10;53.22;97715.94;5007676;28;20065;-39
2023/07/10 09:54:38;;;;;;;7.82;4.68;;;30.00;81.50;;;30.03;53.42;97713.06;4992971;28;20034;-41
2023/07/10 09:57:16;;;;;;;9.45;4.68;;;29.90;82.40;;;30.05;51.77;97709.13;4988776;28;20046;-39
2023/07/10 09:59:49;;;;;;;5.68;4.53;;;29.90;80.70;;;30.19;54.75;97706.75;4988446;28;20030;-39
2023/07/10 10:02:23;;;;;;;5.82;4.18;;;30.00;82.20;;;30.17;51.83;97716.94;4994610;28;20057;-39
2023/07/10 10:05:12;;;;;;;5.78;5.03;;;30.00;81.70;;;30.09;52.88;97712.34;4993091;28;20033;-39
2023/07/10 10:07:42;;;;;;;9.82;4.50;;;29.90;81.00;;;30.19;51.25;97702.16;4995730;28;20052;-39
2023/07/10 10:10:29;;;;;;;6.28;4.70;;;30.00;80.70;;;30.02;52.32;97690.47;4982432;28;20038;-39
2023/07/10 10:13:14;;;;;;;9.18;4.68;;;30.00;80.90;;;29.92;51.98;97683.53;4987921;28;20030;-39
2023/07/10 10:15:53;;;;;;;7.22;5.07;;;29.90;80.10;;;30.02;53.53;97689.59;5007869;28;20030;-39
2023/07/10 10:18:46;;;;;;;6.47;4.68;;;29.90;81.80;;;30.19;52.62;97680.38;4997978;28;20030;-39
2023/07/10 10:21:15;;;;;;;8.07;4.40;;;30.00;81.70;;;30.30;51.81;97692.75;4993129;28;20061;-39
2023/07/10 10:23:46;;;;;;;7.15;5.30;;;30.10;81.00;;;30.23;50.97;97692.59;4995626;28;20045;-41
2023/07/10 10:26:34;;;;;;;8.60;4.65;;;30.20;79.90;;;30.35;50.78;97689.56;4988750;28;20030;-39
2023/07/10 10:29:32;;;;;;;5.95;5.00;;;30.20;80.20;;;30.37;51.20;97690.25;4992362;28;20030;-40